sensor_id;sensor_type;location;lat;lon;timestamp;P1;P2;P0
29062;PMS5003;71206;48.564;-123.458;2023-07-20T00:00:24;3;2;
29062;PMS5003;71206;48.564;-123.458;2023-07-20T00:02:50;1;1;
29062;PMS5003;71206;48.564;-123.458;2023-07-20T00:05:14;2;2;
29062;PMS5003;71206;48.564;-123.458;2023-07-20T00:07:40;2;2;
29062;PMS5003;71206;48.564;-123.458;2023-07-20T00:10:08;3;3;
29062;PMS5003;71206;48.564;-123.458;2023-07-20T00:12:31;2;2;
29062;PMS5003;71206;48.564;-123.458;2023-07-20T00:14:57;3;3;
29062;PMS5003;71206;48.564;-123.458;2023-07-20T00:17:22;2;2;
29062;PMS5003;71206;48.564;-123.458;2023-07-20T00:19:48;3;3;
29062;PMS5003;71206;48.564;-123.458;2023-07-20T00:22:13;3;3;
29062;PMS5003;71206;48.564;-123.458;2023-07-20T00:24:40;3;2;
29062;PMS5003;71206;48.564;-123.458;2023-07-20T00:27:05;2;2;
29062;PMS5003;71206;48.564;-123.458;2023-07-20T00:29:30;1;1;
29062;PMS5003;71206;48.564;-123.458;2023-07-20T00:31:56;3;3;
29062;PMS5003;71206;48.564;-123.458;2023-07-20T00:34:24;2;2;
29062;PMS5003;71206;48.564;-123.458;2023-07-20T00:36:47;2;2;
29062;PMS5003;71206;48.564;-123.458;2023-07-20T00:39:13;3;3;
29062;PMS5003;71206;48.564;-123.458;2023-07-20T00:41:38;3;3;
29062;PMS5003;71206;48.564;-123.458;2023-07-20T00:44:04;2;2;
29062;PMS5003;71206;48.564;-123.458;2023-07-20T00:46:29;2;2;
29062;PMS5003;71206;48.564;-123.458;2023-07-20T00:48:55;4;3;
29062;PMS5003;71206;48.564;-123.458;2023-07-20T00:51:21;3;3;
29062;PMS5003;71206;48.564;-123.458;2023-07-20T00:53:46;3;3;
29062;PMS5003;71206;48.564;-123.458;2023-07-20T00:56:12;2;2;
29062;PMS5003;71206;48.564;-123.458;2023-07-20T00:58:38;3;2;
29062;PMS5003;71206;48.564;-123.458;2023-07-20T01:01:02;3;3;
29062;PMS5003;71206;48.564;-123.458;2023-07-20T01:03:28;5;5;
29062;PMS5003;71206;48.564;-123.458;2023-07-20T01:05:59;2;2;
29062;PMS5003;71206;48.564;-123.458;2023-07-20T01:08:22;2;2;
29062;PMS5003;71206;48.564;-123.458;2023-07-20T01:10:48;3;3;
29062;PMS5003;71206;48.564;-123.458;2023-07-20T01:13:11;3;3;
29062;PMS5003;71206;48.564;-123.458;2023-07-20T01:15:36;4;3;
29062;PMS5003;71206;48.564;-123.458;2023-07-20T01:18:03;2;2;
29062;PMS5003;71206;48.564;-123.458;2023-07-20T01:20:27;3;3;
29062;PMS5003;71206;48.564;-123.458;2023-07-20T01:23:06;4;4;
29062;PMS5003;71206;48.564;-123.458;2023-07-20T01:25:22;3;2;
29062;PMS5003;71206;48.564;-123.458;2023-07-20T01:27:51;2;1;
29062;PMS5003;71206;48.564;-123.458;2023-07-20T01:30:16;3;3;
29062;PMS5003;71206;48.564;-123.458;2023-07-20T01:32:35;3;3;
29062;PMS5003;71206;48.564;-123.458;2023-07-20T01:35:02;3;2;
29062;PMS5003;71206;48.564;-123.458;2023-07-20T01:37:26;4;4;
29062;PMS5003;71206;48.564;-123.458;2023-07-20T01:39:52;2;2;
29062;PMS5003;71206;48.564;-123.458;2023-07-20T01:42:19;3;3;
29062;PMS5003;71206;48.564;-123.458;2023-07-20T01:44:43;3;3;
29062;PMS5003;71206;48.564;-123.458;2023-07-20T01:47:09;3;3;
29062;PMS5003;71206;48.564;-123.458;2023-07-20T01:49:35;5;5;
29062;PMS5003;71206;48.564;-123.458;2023-07-20T01:52:00;2;2;
29062;PMS5003;71206;48.564;-123.458;2023-07-20T01:54:26;4;4;
29062;PMS5003;71206;48.564;-123.458;2023-07-20T01:56:51;3;3;
29062;PMS5003;71206;48.564;-123.458;2023-07-20T01:59:17;3;3;
29062;PMS5003;71206;48.564;-123.458;2023-07-20T02:01:42;2;2;
29062;PMS5003;71206;48.564;-123.458;2023-07-20T02:04:08;3;3;
29062;PMS5003;71206;48.564;-123.458;2023-07-20T02:06:33;3;2;
29062;PMS5003;71206;48.564;-123.458;2023-07-20T02:09:00;2;2;
29062;PMS5003;71206;48.564;-123.458;2023-07-20T02:11:26;3;3;
29062;PMS5003;71206;48.564;-123.458;2023-07-20T02:13:55;3;3;
29062;PMS5003;71206;48.564;-123.458;2023-07-20T02:16:16;2;2;
29062;PMS5003;71206;48.564;-123.458;2023-07-20T02:18:42;4;4;
29062;PMS5003;71206;48.564;-123.458;2023-07-20T02:21:07;4;4;
29062;PMS5003;71206;48.564;-123.458;2023-07-20T02:23:32;3;3;
29062;PMS5003;71206;48.564;-123.458;2023-07-20T02:25:58;3;3;
29062;PMS5003;71206;48.564;-123.458;2023-07-20T02:28:23;4;4;
29062;PMS5003;71206;48.564;-123.458;2023-07-20T02:30:49;3;3;
29062;PMS5003;71206;48.564;-123.458;2023-07-20T02:33:15;3;3;
29062;PMS5003;71206;48.564;-123.458;2023-07-20T02:35:43;6;5;
29062;PMS5003;71206;48.564;-123.458;2023-07-20T02:38:06;4;4;
29062;PMS5003;71206;48.564;-123.458;2023-07-20T02:42:57;3;2;
29062;PMS5003;71206;48.564;-123.458;2023-07-20T02:45:22;2;2;
29062;PMS5003;71206;48.564;-123.458;2023-07-20T02:47:48;3;3;
29062;PMS5003;71206;48.564;-123.458;2023-07-20T02:50:14;3;3;
29062;PMS5003;71206;48.564;-123.458;2023-07-20T02:52:39;2;2;
29062;PMS5003;71206;48.564;-123.458;2023-07-20T02:55:05;3;3;
29062;PMS5003;71206;48.564;-123.458;2023-07-20T02:57:30;2;2;
29062;PMS5003;71206;48.564;-123.458;2023-07-20T02:59:56;4;3;
29062;PMS5003;71206;48.564;-123.458;2023-07-20T03:02:21;2;2;
29062;PMS5003;71206;48.564;-123.458;2023-07-20T03:04:49;3;3;
29062;PMS5003;71206;48.564;-123.458;2023-07-20T03:07:13;2;2;
29062;PMS5003;71206;48.564;-123.458;2023-07-20T03:09:38;3;3;
29062;PMS5003;71206;48.564;-123.458;2023-07-20T03:12:04;4;3;
29062;PMS5003;71206;48.564;-123.458;2023-07-20T03:14:29;3;3;
29062;PMS5003;71206;48.564;-123.458;2023-07-20T03:16:55;2;2;
29062;PMS5003;71206;48.564;-123.458;2023-07-20T03:19:20;4;4;
29062;PMS5003;71206;48.564;-123.458;2023-07-20T03:21:46;3;3;
29062;PMS5003;71206;48.564;-123.458;2023-07-20T03:24:12;4;3;
29062;PMS5003;71206;48.564;-123.458;2023-07-20T03:26:37;3;3;
29062;PMS5003;71206;48.564;-123.458;2023-07-20T03:29:03;5;4;
29062;PMS5003;71206;48.564;-123.458;2023-07-20T03:31:28;3;3;
29062;PMS5003;71206;48.564;-123.458;2023-07-20T03:33:54;2;2;
29062;PMS5003;71206;48.564;-123.458;2023-07-20T03:36:20;4;3;
29062;PMS5003;71206;48.564;-123.458;2023-07-20T03:38:45;5;3;
29062;PMS5003;71206;48.564;-123.458;2023-07-20T03:41:11;2;2;
29062;PMS5003;71206;48.564;-123.458;2023-07-20T03:43:36;5;3;
29062;PMS5003;71206;48.564;-123.458;2023-07-20T03:46:02;3;3;
29062;PMS5003;71206;48.564;-123.458;2023-07-20T03:48:28;4;3;
29062;PMS5003;71206;48.564;-123.458;2023-07-20T03:50:53;3;3;
29062;PMS5003;71206;48.564;-123.458;2023-07-20T03:53:21;2;2;
29062;PMS5003;71206;48.564;-123.458;2023-07-20T03:55:44;2;2;
29062;PMS5003;71206;48.564;-123.458;2023-07-20T03:58:10;4;4;
29062;PMS5003;71206;48.564;-123.458;2023-07-20T04:00:36;3;3;
29062;PMS5003;71206;48.564;-123.458;2023-07-20T04:03:01;4;4;
29062;PMS5003;71206;48.564;-123.458;2023-07-20T04:05:27;1;1;
29062;PMS5003;71206;48.564;-123.458;2023-07-20T04:07:52;3;3;
29062;PMS5003;71206;48.564;-123.458;2023-07-20T04:10:18;4;4;
29062;PMS5003;71206;48.564;-123.458;2023-07-20T04:12:44;4;3;
29062;PMS5003;71206;48.564;-123.458;2023-07-20T04:15:09;4;3;
29062;PMS5003;71206;48.564;-123.458;2023-07-20T04:17:35;3;3;
29062;PMS5003;71206;48.564;-123.458;2023-07-20T04:20:00;4;3;
29062;PMS5003;71206;48.564;-123.458;2023-07-20T04:22:26;4;3;
29062;PMS5003;71206;48.564;-123.458;2023-07-20T04:24:52;3;3;
29062;PMS5003;71206;48.564;-123.458;2023-07-20T04:27:17;2;2;
29062;PMS5003;71206;48.564;-123.458;2023-07-20T04:29:43;4;4;
29062;PMS5003;71206;48.564;-123.458;2023-07-20T04:32:09;3;3;
29062;PMS5003;71206;48.564;-123.458;2023-07-20T04:34:34;1;1;
29062;PMS5003;71206;48.564;-123.458;2023-07-20T04:36:59;4;4;
29062;PMS5003;71206;48.564;-123.458;2023-07-20T04:39:25;4;4;
29062;PMS5003;71206;48.564;-123.458;2023-07-20T04:41:51;3;3;
29062;PMS5003;71206;48.564;-123.458;2023-07-20T04:44:17;2;2;
29062;PMS5003;71206;48.564;-123.458;2023-07-20T04:46:42;3;3;
29062;PMS5003;71206;48.564;-123.458;2023-07-20T04:49:08;4;4;
29062;PMS5003;71206;48.564;-123.458;2023-07-20T04:51:33;4;4;
29062;PMS5003;71206;48.564;-123.458;2023-07-20T04:53:59;4;3;
29062;PMS5003;71206;48.564;-123.458;2023-07-20T04:56:25;5;5;
29062;PMS5003;71206;48.564;-123.458;2023-07-20T04:58:52;4;4;
29062;PMS5003;71206;48.564;-123.458;2023-07-20T05:01:17;9;9;
29062;PMS5003;71206;48.564;-123.458;2023-07-20T05:03:42;5;5;
29062;PMS5003;71206;48.564;-123.458;2023-07-20T05:06:07;6;5;
29062;PMS5003;71206;48.564;-123.458;2023-07-20T05:08:39;2;2;
29062;PMS5003;71206;48.564;-123.458;2023-07-20T05:10:59;3;3;
29062;PMS5003;71206;48.564;-123.458;2023-07-20T05:13:24;2;2;
29062;PMS5003;71206;48.564;-123.458;2023-07-20T05:15:51;4;4;
29062;PMS5003;71206;48.564;-123.458;2023-07-20T05:18:16;5;5;
29062;PMS5003;71206;48.564;-123.458;2023-07-20T05:20:42;4;3;
29062;PMS5003;71206;48.564;-123.458;2023-07-20T05:23:07;3;3;
29062;PMS5003;71206;48.564;-123.458;2023-07-20T05:25:33;5;5;
29062;PMS5003;71206;48.564;-123.458;2023-07-20T05:27:58;3;3;
29062;PMS5003;71206;48.564;-123.458;2023-07-20T05:30:24;5;5;
29062;PMS5003;71206;48.564;-123.458;2023-07-20T05:32:53;5;4;
29062;PMS5003;71206;48.564;-123.458;2023-07-20T05:35:16;5;5;
29062;PMS5003;71206;48.564;-123.458;2023-07-20T05:37:41;5;5;
29062;PMS5003;71206;48.564;-123.458;2023-07-20T05:40:07;3;3;
29062;PMS5003;71206;48.564;-123.458;2023-07-20T05:42:33;4;4;
29062;PMS5003;71206;48.564;-123.458;2023-07-20T05:44:58;5;5;
29062;PMS5003;71206;48.564;-123.458;2023-07-20T05:47:24;5;5;
29062;PMS5003;71206;48.564;-123.458;2023-07-20T05:49:50;5;4;
29062;PMS5003;71206;48.564;-123.458;2023-07-20T05:52:15;4;4;
29062;PMS5003;71206;48.564;-123.458;2023-07-20T05:54:42;5;5;
29062;PMS5003;71206;48.564;-123.458;2023-07-20T05:57:07;6;5;
29062;PMS5003;71206;48.564;-123.458;2023-07-20T05:59:33;4;4;
29062;PMS5003;71206;48.564;-123.458;2023-07-20T06:01:58;3;3;
29062;PMS5003;71206;48.564;-123.458;2023-07-20T06:04:24;5;4;
29062;PMS5003;71206;48.564;-123.458;2023-07-20T06:06:51;5;4;
29062;PMS5003;71206;48.564;-123.458;2023-07-20T06:09:16;4;4;
29062;PMS5003;71206;48.564;-123.458;2023-07-20T06:11:41;5;5;
29062;PMS5003;71206;48.564;-123.458;2023-07-20T06:14:07;7;6;
29062;PMS5003;71206;48.564;-123.458;2023-07-20T06:16:33;5;5;
29062;PMS5003;71206;48.564;-123.458;2023-07-20T06:18:59;5;4;
29062;PMS5003;71206;48.564;-123.458;2023-07-20T06:21:25;5;5;
29062;PMS5003;71206;48.564;-123.458;2023-07-20T06:23:50;6;6;
29062;PMS5003;71206;48.564;-123.458;2023-07-20T06:26:16;5;5;
29062;PMS5003;71206;48.564;-123.458;2023-07-20T06:28:42;6;6;
29062;PMS5003;71206;48.564;-123.458;2023-07-20T06:31:08;5;5;
29062;PMS5003;71206;48.564;-123.458;2023-07-20T06:33:33;7;6;
29062;PMS5003;71206;48.564;-123.458;2023-07-20T06:35:59;4;4;
29062;PMS5003;71206;48.564;-123.458;2023-07-20T06:38:25;6;6;
29062;PMS5003;71206;48.564;-123.458;2023-07-20T06:40:50;5;5;
29062;PMS5003;71206;48.564;-123.458;2023-07-20T06:43:21;4;4;
29062;PMS5003;71206;48.564;-123.458;2023-07-20T06:45:42;6;6;
29062;PMS5003;71206;48.564;-123.458;2023-07-20T06:48:09;6;6;
29062;PMS5003;71206;48.564;-123.458;2023-07-20T06:50:34;6;6;
29062;PMS5003;71206;48.564;-123.458;2023-07-20T06:53:00;6;6;
29062;PMS5003;71206;48.564;-123.458;2023-07-20T06:55:25;6;6;
29062;PMS5003;71206;48.564;-123.458;2023-07-20T06:57:51;6;6;
29062;PMS5003;71206;48.564;-123.458;2023-07-20T07:00:17;7;7;
29062;PMS5003;71206;48.564;-123.458;2023-07-20T07:02:43;5;5;
29062;PMS5003;71206;48.564;-123.458;2023-07-20T07:05:08;5;5;
29062;PMS5003;71206;48.564;-123.458;2023-07-20T07:07:34;4;4;
29062;PMS5003;71206;48.564;-123.458;2023-07-20T07:10:00;5;5;
29062;PMS5003;71206;48.564;-123.458;2023-07-20T07:12:26;5;5;
29062;PMS5003;71206;48.564;-123.458;2023-07-20T07:14:52;6;5;
29062;PMS5003;71206;48.564;-123.458;2023-07-20T07:17:17;2;2;
29062;PMS5003;71206;48.564;-123.458;2023-07-20T07:19:43;5;5;
29062;PMS5003;71206;48.564;-123.458;2023-07-20T07:22:08;4;4;
29062;PMS5003;71206;48.564;-123.458;2023-07-20T07:24:39;5;5;
29062;PMS5003;71206;48.564;-123.458;2023-07-20T07:27:01;6;4;
29062;PMS5003;71206;48.564;-123.458;2023-07-20T07:29:26;4;4;
29062;PMS5003;71206;48.564;-123.458;2023-07-20T07:31:52;5;5;
29062;PMS5003;71206;48.564;-123.458;2023-07-20T07:34:17;5;5;
29062;PMS5003;71206;48.564;-123.458;2023-07-20T07:36:44;7;6;
29062;PMS5003;71206;48.564;-123.458;2023-07-20T07:39:09;5;4;
29062;PMS5003;71206;48.564;-123.458;2023-07-20T07:41:36;5;5;
29062;PMS5003;71206;48.564;-123.458;2023-07-20T07:44:02;5;4;
29062;PMS5003;71206;48.564;-123.458;2023-07-20T07:46:27;3;3;
29062;PMS5003;71206;48.564;-123.458;2023-07-20T07:48:54;6;6;
29062;PMS5003;71206;48.564;-123.458;2023-07-20T07:51:18;5;5;
29062;PMS5003;71206;48.564;-123.458;2023-07-20T07:53:45;5;5;
29062;PMS5003;71206;48.564;-123.458;2023-07-20T07:56:10;8;7;
29062;PMS5003;71206;48.564;-123.458;2023-07-20T07:58:36;4;4;
29062;PMS5003;71206;48.564;-123.458;2023-07-20T08:01:01;5;5;
29062;PMS5003;71206;48.564;-123.458;2023-07-20T08:03:27;4;4;
29062;PMS5003;71206;48.564;-123.458;2023-07-20T08:05:54;5;5;
29062;PMS5003;71206;48.564;-123.458;2023-07-20T08:08:19;5;4;
29062;PMS5003;71206;48.564;-123.458;2023-07-20T08:10:45;6;6;
29062;PMS5003;71206;48.564;-123.458;2023-07-20T08:13:10;4;4;
29062;PMS5003;71206;48.564;-123.458;2023-07-20T08:15:36;5;5;
29062;PMS5003;71206;48.564;-123.458;2023-07-20T08:18:02;6;6;
29062;PMS5003;71206;48.564;-123.458;2023-07-20T08:20:28;5;5;
29062;PMS5003;71206;48.564;-123.458;2023-07-20T08:22:54;5;5;
29062;PMS5003;71206;48.564;-123.458;2023-07-20T08:25:19;6;6;
29062;PMS5003;71206;48.564;-123.458;2023-07-20T08:27:45;8;8;
29062;PMS5003;71206;48.564;-123.458;2023-07-20T08:30:11;6;6;
29062;PMS5003;71206;48.564;-123.458;2023-07-20T08:32:37;5;4;
29062;PMS5003;71206;48.564;-123.458;2023-07-20T08:35:03;4;4;
29062;PMS5003;71206;48.564;-123.458;2023-07-20T08:37:28;5;5;
29062;PMS5003;71206;48.564;-123.458;2023-07-20T08:39:56;4;4;
29062;PMS5003;71206;48.564;-123.458;2023-07-20T08:42:20;4;4;
29062;PMS5003;71206;48.564;-123.458;2023-07-20T08:44:46;6;6;
29062;PMS5003;71206;48.564;-123.458;2023-07-20T08:47:12;6;6;
29062;PMS5003;71206;48.564;-123.458;2023-07-20T08:49:37;5;5;
29062;PMS5003;71206;48.564;-123.458;2023-07-20T08:52:04;6;6;
29062;PMS5003;71206;48.564;-123.458;2023-07-20T08:54:29;5;4;
29062;PMS5003;71206;48.564;-123.458;2023-07-20T08:56:54;7;6;
29062;PMS5003;71206;48.564;-123.458;2023-07-20T08:59:21;7;7;
29062;PMS5003;71206;48.564;-123.458;2023-07-20T09:01:46;6;6;
29062;PMS5003;71206;48.564;-123.458;2023-07-20T09:04:13;7;6;
29062;PMS5003;71206;48.564;-123.458;2023-07-20T09:06:38;6;5;
29062;PMS5003;71206;48.564;-123.458;2023-07-20T09:09:03;5;5;
29062;PMS5003;71206;48.564;-123.458;2023-07-20T09:11:29;7;6;
29062;PMS5003;71206;48.564;-123.458;2023-07-20T09:16:21;5;4;
29062;PMS5003;71206;48.564;-123.458;2023-07-20T09:18:47;5;5;
29062;PMS5003;71206;48.564;-123.458;2023-07-20T09:21:12;6;6;
29062;PMS5003;71206;48.564;-123.458;2023-07-20T09:23:38;7;6;
29062;PMS5003;71206;48.564;-123.458;2023-07-20T09:26:09;6;5;
29062;PMS5003;71206;48.564;-123.458;2023-07-20T09:28:29;8;8;
29062;PMS5003;71206;48.564;-123.458;2023-07-20T09:30:55;5;4;
29062;PMS5003;71206;48.564;-123.458;2023-07-20T09:33:21;5;5;
29062;PMS5003;71206;48.564;-123.458;2023-07-20T09:35:46;6;6;
29062;PMS5003;71206;48.564;-123.458;2023-07-20T09:38:16;7;7;
29062;PMS5003;71206;48.564;-123.458;2023-07-20T09:40:38;7;7;
29062;PMS5003;71206;48.564;-123.458;2023-07-20T09:43:07;5;5;
29062;PMS5003;71206;48.564;-123.458;2023-07-20T09:45:30;3;3;
29062;PMS5003;71206;48.564;-123.458;2023-07-20T09:47:59;6;6;
29062;PMS5003;71206;48.564;-123.458;2023-07-20T09:50:21;7;7;
29062;PMS5003;71206;48.564;-123.458;2023-07-20T09:52:47;6;6;
29062;PMS5003;71206;48.564;-123.458;2023-07-20T09:55:13;5;5;
29062;PMS5003;71206;48.564;-123.458;2023-07-20T09:57:39;5;5;
29062;PMS5003;71206;48.564;-123.458;2023-07-20T10:00:05;8;7;
29062;PMS5003;71206;48.564;-123.458;2023-07-20T10:02:32;5;5;
29062;PMS5003;71206;48.564;-123.458;2023-07-20T10:04:56;6;6;
29062;PMS5003;71206;48.564;-123.458;2023-07-20T10:07:22;6;6;
29062;PMS5003;71206;48.564;-123.458;2023-07-20T10:09:48;6;6;
29062;PMS5003;71206;48.564;-123.458;2023-07-20T10:12:14;7;6;
29062;PMS5003;71206;48.564;-123.458;2023-07-20T10:14:41;7;6;
29062;PMS5003;71206;48.564;-123.458;2023-07-20T10:17:06;5;5;
29062;PMS5003;71206;48.564;-123.458;2023-07-20T10:19:33;6;6;
29062;PMS5003;71206;48.564;-123.458;2023-07-20T10:22:00;6;6;
29062;PMS5003;71206;48.564;-123.458;2023-07-20T10:24:23;7;7;
29062;PMS5003;71206;48.564;-123.458;2023-07-20T10:26:49;6;6;
29062;PMS5003;71206;48.564;-123.458;2023-07-20T10:29:15;4;4;
29062;PMS5003;71206;48.564;-123.458;2023-07-20T10:31:40;5;5;
29062;PMS5003;71206;48.564;-123.458;2023-07-20T10:34:06;5;5;
29062;PMS5003;71206;48.564;-123.458;2023-07-20T10:36:32;5;5;
29062;PMS5003;71206;48.564;-123.458;2023-07-20T10:38:59;6;5;
29062;PMS5003;71206;48.564;-123.458;2023-07-20T10:41:27;6;6;
29062;PMS5003;71206;48.564;-123.458;2023-07-20T10:43:51;5;5;
29062;PMS5003;71206;48.564;-123.458;2023-07-20T10:46:16;5;5;
29062;PMS5003;71206;48.564;-123.458;2023-07-20T10:51:10;5;5;
29062;PMS5003;71206;48.564;-123.458;2023-07-20T10:53:33;5;5;
29062;PMS5003;71206;48.564;-123.458;2023-07-20T10:58:25;5;5;
29062;PMS5003;71206;48.564;-123.458;2023-07-20T11:00:58;5;3;
29062;PMS5003;71206;48.564;-123.458;2023-07-20T11:05:42;4;4;
29062;PMS5003;71206;48.564;-123.458;2023-07-20T11:08:10;5;5;
29062;PMS5003;71206;48.564;-123.458;2023-07-20T11:10:34;5;5;
29062;PMS5003;71206;48.564;-123.458;2023-07-20T11:15:27;5;5;
29062;PMS5003;71206;48.564;-123.458;2023-07-20T11:17:51;5;5;
29062;PMS5003;71206;48.564;-123.458;2023-07-20T11:20:18;9;6;
29062;PMS5003;71206;48.564;-123.458;2023-07-20T11:22:43;4;4;
29062;PMS5003;71206;48.564;-123.458;2023-07-20T11:25:10;5;5;
29062;PMS5003;71206;48.564;-123.458;2023-07-20T11:27:38;3;3;
29062;PMS5003;71206;48.564;-123.458;2023-07-20T11:30:01;5;5;
29062;PMS5003;71206;48.564;-123.458;2023-07-20T11:32:26;6;5;
29062;PMS5003;71206;48.564;-123.458;2023-07-20T11:34:52;5;5;
29062;PMS5003;71206;48.564;-123.458;2023-07-20T11:37:18;4;4;
29062;PMS5003;71206;48.564;-123.458;2023-07-20T11:39:44;4;4;
29062;PMS5003;71206;48.564;-123.458;2023-07-20T11:42:10;5;5;
29062;PMS5003;71206;48.564;-123.458;2023-07-20T11:44:36;5;5;
29062;PMS5003;71206;48.564;-123.458;2023-07-20T11:47:04;4;4;
29062;PMS5003;71206;48.564;-123.458;2023-07-20T11:49:27;6;5;
29062;PMS5003;71206;48.564;-123.458;2023-07-20T11:51:53;5;5;
29062;PMS5003;71206;48.564;-123.458;2023-07-20T11:54:19;5;5;
29062;PMS5003;71206;48.564;-123.458;2023-07-20T11:56:45;5;5;
29062;PMS5003;71206;48.564;-123.458;2023-07-20T11:59:11;6;5;
29062;PMS5003;71206;48.564;-123.458;2023-07-20T12:01:36;6;5;
29062;PMS5003;71206;48.564;-123.458;2023-07-20T12:04:03;5;5;
29062;PMS5003;71206;48.564;-123.458;2023-07-20T12:06:28;6;5;
29062;PMS5003;71206;48.564;-123.458;2023-07-20T12:08:54;4;4;
29062;PMS5003;71206;48.564;-123.458;2023-07-20T12:13:45;4;4;
29062;PMS5003;71206;48.564;-123.458;2023-07-20T12:16:12;4;4;
29062;PMS5003;71206;48.564;-123.458;2023-07-20T12:18:37;4;4;
29062;PMS5003;71206;48.564;-123.458;2023-07-20T12:21:05;4;4;
29062;PMS5003;71206;48.564;-123.458;2023-07-20T12:23:35;4;4;
29062;PMS5003;71206;48.564;-123.458;2023-07-20T12:25:55;5;4;
29062;PMS5003;71206;48.564;-123.458;2023-07-20T12:28:20;6;6;
29062;PMS5003;71206;48.564;-123.458;2023-07-20T12:30:47;7;7;
29062;PMS5003;71206;48.564;-123.458;2023-07-20T12:33:13;6;6;
29062;PMS5003;71206;48.564;-123.458;2023-07-20T12:35:38;8;7;
29062;PMS5003;71206;48.564;-123.458;2023-07-20T12:38:04;7;7;
29062;PMS5003;71206;48.564;-123.458;2023-07-20T12:40:30;7;6;
29062;PMS5003;71206;48.564;-123.458;2023-07-20T12:42:55;5;5;
29062;PMS5003;71206;48.564;-123.458;2023-07-20T12:45:20;6;5;
29062;PMS5003;71206;48.564;-123.458;2023-07-20T12:47:45;6;6;
29062;PMS5003;71206;48.564;-123.458;2023-07-20T12:50:11;4;4;
29062;PMS5003;71206;48.564;-123.458;2023-07-20T12:52:39;6;6;
29062;PMS5003;71206;48.564;-123.458;2023-07-20T12:55:01;5;5;
29062;PMS5003;71206;48.564;-123.458;2023-07-20T12:57:26;6;5;
29062;PMS5003;71206;48.564;-123.458;2023-07-20T12:59:51;6;5;
29062;PMS5003;71206;48.564;-123.458;2023-07-20T13:02:16;5;5;
29062;PMS5003;71206;48.564;-123.458;2023-07-20T13:04:41;6;6;
29062;PMS5003;71206;48.564;-123.458;2023-07-20T13:07:09;7;5;
29062;PMS5003;71206;48.564;-123.458;2023-07-20T13:09:31;7;7;
29062;PMS5003;71206;48.564;-123.458;2023-07-20T13:11:56;5;5;
29062;PMS5003;71206;48.564;-123.458;2023-07-20T13:14:21;5;5;
29062;PMS5003;71206;48.564;-123.458;2023-07-20T13:16:46;6;6;
29062;PMS5003;71206;48.564;-123.458;2023-07-20T13:19:11;4;3;
29062;PMS5003;71206;48.564;-123.458;2023-07-20T13:21:36;6;6;
29062;PMS5003;71206;48.564;-123.458;2023-07-20T13:24:01;5;5;
29062;PMS5003;71206;48.564;-123.458;2023-07-20T13:26:26;6;6;
29062;PMS5003;71206;48.564;-123.458;2023-07-20T13:28:51;5;5;
29062;PMS5003;71206;48.564;-123.458;2023-07-20T13:31:16;7;6;
29062;PMS5003;71206;48.564;-123.458;2023-07-20T13:33:42;6;6;
29062;PMS5003;71206;48.564;-123.458;2023-07-20T13:36:06;6;6;
29062;PMS5003;71206;48.564;-123.458;2023-07-20T13:38:31;5;5;
29062;PMS5003;71206;48.564;-123.458;2023-07-20T13:40:56;7;7;
29062;PMS5003;71206;48.564;-123.458;2023-07-20T13:43:21;4;4;
29062;PMS5003;71206;48.564;-123.458;2023-07-20T13:45:47;5;5;
29062;PMS5003;71206;48.564;-123.458;2023-07-20T13:48:11;5;5;
29062;PMS5003;71206;48.564;-123.458;2023-07-20T13:50:36;6;6;
29062;PMS5003;71206;48.564;-123.458;2023-07-20T13:53:02;8;7;
29062;PMS5003;71206;48.564;-123.458;2023-07-20T13:55:27;5;5;
29062;PMS5003;71206;48.564;-123.458;2023-07-20T13:57:53;6;5;
29062;PMS5003;71206;48.564;-123.458;2023-07-20T14:00:17;4;4;
29062;PMS5003;71206;48.564;-123.458;2023-07-20T14:02:42;4;4;
29062;PMS5003;71206;48.564;-123.458;2023-07-20T14:05:08;6;6;
29062;PMS5003;71206;48.564;-123.458;2023-07-20T14:07:32;6;6;
29062;PMS5003;71206;48.564;-123.458;2023-07-20T14:09:57;5;5;
29062;PMS5003;71206;48.564;-123.458;2023-07-20T14:12:22;5;5;
29062;PMS5003;71206;48.564;-123.458;2023-07-20T14:14:47;5;5;
29062;PMS5003;71206;48.564;-123.458;2023-07-20T14:17:13;6;6;
29062;PMS5003;71206;48.564;-123.458;2023-07-20T14:19:43;6;6;
29062;PMS5003;71206;48.564;-123.458;2023-07-20T14:22:05;5;5;
29062;PMS5003;71206;48.564;-123.458;2023-07-20T14:24:31;6;6;
29062;PMS5003;71206;48.564;-123.458;2023-07-20T14:26:57;4;4;
29062;PMS5003;71206;48.564;-123.458;2023-07-20T14:29:23;5;4;
29062;PMS5003;71206;48.564;-123.458;2023-07-20T14:31:49;6;5;
29062;PMS5003;71206;48.564;-123.458;2023-07-20T14:34:14;3;3;
29062;PMS5003;71206;48.564;-123.458;2023-07-20T14:36:40;4;4;
29062;PMS5003;71206;48.564;-123.458;2023-07-20T14:39:06;4;4;
29062;PMS5003;71206;48.564;-123.458;2023-07-20T14:41:32;7;7;
29062;PMS5003;71206;48.564;-123.458;2023-07-20T14:43:59;6;6;
29062;PMS5003;71206;48.564;-123.458;2023-07-20T14:46:23;6;6;
29062;PMS5003;71206;48.564;-123.458;2023-07-20T14:48:49;6;6;
29062;PMS5003;71206;48.564;-123.458;2023-07-20T14:51:15;6;6;
29062;PMS5003;71206;48.564;-123.458;2023-07-20T14:53:40;7;7;
29062;PMS5003;71206;48.564;-123.458;2023-07-20T14:56:06;7;6;
29062;PMS5003;71206;48.564;-123.458;2023-07-20T14:58:32;8;7;
29062;PMS5003;71206;48.564;-123.458;2023-07-20T15:00:59;8;8;
29062;PMS5003;71206;48.564;-123.458;2023-07-20T15:03:23;9;9;
29062;PMS5003;71206;48.564;-123.458;2023-07-20T15:05:49;6;6;
29062;PMS5003;71206;48.564;-123.458;2023-07-20T15:08:15;9;7;
29062;PMS5003;71206;48.564;-123.458;2023-07-20T15:10:41;8;6;
29062;PMS5003;71206;48.564;-123.458;2023-07-20T15:13:08;10;9;
29062;PMS5003;71206;48.564;-123.458;2023-07-20T15:15:32;7;6;
29062;PMS5003;71206;48.564;-123.458;2023-07-20T15:17:58;5;5;
29062;PMS5003;71206;48.564;-123.458;2023-07-20T15:20:24;9;7;
29062;PMS5003;71206;48.564;-123.458;2023-07-20T15:22:49;9;9;
29062;PMS5003;71206;48.564;-123.458;2023-07-20T15:25:15;6;6;
29062;PMS5003;71206;48.564;-123.458;2023-07-20T15:27:41;7;7;
29062;PMS5003;71206;48.564;-123.458;2023-07-20T15:30:07;8;7;
29062;PMS5003;71206;48.564;-123.458;2023-07-20T15:32:33;7;7;
29062;PMS5003;71206;48.564;-123.458;2023-07-20T15:34:58;9;8;
29062;PMS5003;71206;48.564;-123.458;2023-07-20T15:37:25;7;7;
29062;PMS5003;71206;48.564;-123.458;2023-07-20T15:39:50;7;7;
29062;PMS5003;71206;48.564;-123.458;2023-07-20T15:42:15;9;9;
29062;PMS5003;71206;48.564;-123.458;2023-07-20T15:44:41;6;6;
29062;PMS5003;71206;48.564;-123.458;2023-07-20T15:47:07;7;7;
29062;PMS5003;71206;48.564;-123.458;2023-07-20T15:49:33;7;7;
29062;PMS5003;71206;48.564;-123.458;2023-07-20T15:51:59;7;7;
29062;PMS5003;71206;48.564;-123.458;2023-07-20T15:54:24;7;7;
29062;PMS5003;71206;48.564;-123.458;2023-07-20T15:56:50;7;5;
29062;PMS5003;71206;48.564;-123.458;2023-07-20T15:59:16;8;7;
29062;PMS5003;71206;48.564;-123.458;2023-07-20T16:01:43;5;5;
29062;PMS5003;71206;48.564;-123.458;2023-07-20T16:04:08;7;7;
29062;PMS5003;71206;48.564;-123.458;2023-07-20T16:06:33;3;3;